53TE weather

Christus Santa Rosa Westover Hills Heliport
San Antonio, Texas, United States

Public forecast

Using degrees Fahrenheit for public forecast. Weather courtesy of forecast.io.

Closest aviation weather report (METAR) to Christus Santa Rosa Westover Hills Heliport

Closest report is Lackland Air Force Base, 7.8 nm (14.4 km) SE. Retrieved 2020/08/04 01:40 UTC (8 minutes ago):

KSKF 040140Z AUTO 08007KT 10SM SCT080 BKN150 BKN180 24/23 A2999 RMK AO2 LTG DSNT S RAE25 SLP149

Closest aviation forecast (TAF) to Christus Santa Rosa Westover Hills Heliport

Forecast is more than 6 hours old.

Closest forecast is Lackland Air Force Base, 7.8 nm (14.4 km) SE. Retrieved 2020/08/03 18:00 UTC (8 hours ago):

TAF KSKF 031800Z 0318/0500 11007KT 9999 FEW060 SCT250 QNH2991INS TEMPO 0323/0402 VRB15G30KT 8000 -SHRA VCTS SCT040 BKN070CB BKN120 BECMG 0403/0404 18006KT 9999 FEW080 SCT120 QNH2987INS TX38/0322Z TN24/0411Z